createdAt,value
2019-01-30T00:01:49.263Z,0.00
2019-01-30T00:04:25.447Z,0.00
2019-01-30T00:07:04.304Z,0.00
2019-01-30T00:09:51.454Z,0.00
2019-01-30T00:12:54.612Z,0.00
2019-01-30T00:15:38.902Z,-0.10
2019-01-30T00:18:37.050Z,-0.10
2019-01-30T00:21:10.027Z,-0.10
2019-01-30T00:23:41.263Z,-0.10
2019-01-30T00:26:37.750Z,-0.10
2019-01-30T00:29:14.697Z,-0.10
2019-01-30T00:31:44.762Z,0.00
2019-01-30T00:34:16.079Z,0.00
2019-01-30T00:36:47.228Z,0.00
2019-01-30T00:39:35.159Z,-0.10
2019-01-30T00:42:08.464Z,-0.10
2019-01-30T00:44:42.667Z,-0.10
2019-01-30T00:47:27.553Z,-0.10
2019-01-30T00:50:01.797Z,-0.20
2019-01-30T00:52:33.102Z,-0.20
2019-01-30T00:55:09.449Z,-0.20
2019-01-30T00:57:40.697Z,-0.20
2019-01-30T01:00:25.956Z,-0.30
2019-01-30T01:03:09.713Z,-0.30
2019-01-30T01:05:40.939Z,-0.30
2019-01-30T01:08:12.703Z,-0.30
2019-01-30T01:10:43.998Z,-0.30
2019-01-30T01:13:20.220Z,-0.30
2019-01-30T01:15:51.309Z,-0.30
2019-01-30T01:18:22.541Z,-0.30
2019-01-30T01:21:14.944Z,-0.30
2019-01-30T01:24:10.626Z,-0.30
2019-01-30T01:26:46.259Z,-0.30
2019-01-30T01:29:17.343Z,-0.20
2019-01-30T01:31:48.633Z,-0.20
2019-01-30T01:34:21.311Z,-0.30
2019-01-30T01:36:52.504Z,-0.30
2019-01-30T01:39:45.164Z,-0.50
2019-01-30T01:42:28.007Z,-0.50
2019-01-30T01:45:09.297Z,-0.60
2019-01-30T01:47:42.816Z,-1.40
2019-01-30T01:50:23.284Z,-0.60
2019-01-30T01:52:58.528Z,-0.60
2019-01-30T01:55:44.204Z,-0.60
2019-01-30T01:58:24.766Z,-0.60
2019-01-30T02:01:23.297Z,-0.70
2019-01-30T02:03:50.922Z,-0.70
2019-01-30T02:06:29.346Z,-0.70
2019-01-30T02:09:18.613Z,-0.60
2019-01-30T02:12:10.878Z,-0.50
2019-01-30T02:14:47.625Z,-0.50
2019-01-30T02:17:40.135Z,-0.50
2019-01-30T02:20:39.853Z,-0.40
2019-01-30T02:23:16.152Z,-0.40
2019-01-30T02:26:05.052Z,-0.50
2019-01-30T02:29:02.008Z,-0.60
2019-01-30T02:31:45.650Z,-0.60
2019-01-30T02:34:22.794Z,-0.70
2019-01-30T02:37:13.213Z,-0.60
2019-01-30T02:39:49.921Z,-0.60
2019-01-30T02:42:28.875Z,-0.70
2019-01-30T02:45:18.076Z,-0.70
2019-01-30T02:48:05.166Z,-0.70
2019-01-30T02:50:41.756Z,-0.60
2019-01-30T02:53:19.889Z,-0.60
2019-01-30T02:55:52.287Z,-0.60
2019-01-30T02:58:35.179Z,-0.60
2019-01-30T03:01:09.770Z,-0.70
2019-01-30T03:03:41.191Z,-0.80
2019-01-30T03:06:15.033Z,-0.90
2019-01-30T03:08:51.602Z,-1.00
2019-01-30T03:11:29.329Z,-1.00
2019-01-30T03:14:06.804Z,-1.00
2019-01-30T03:16:42.638Z,-1.10
2019-01-30T03:19:15.031Z,-1.10
2019-01-30T03:21:46.867Z,-1.00
2019-01-30T03:24:19.930Z,-1.00
2019-01-30T03:26:51.512Z,-1.00
2019-01-30T03:29:28.429Z,-1.10
2019-01-30T03:32:05.512Z,-1.10
2019-01-30T03:34:45.698Z,-1.20
2019-01-30T03:37:26.392Z,-1.30
2019-01-30T03:40:09.820Z,-1.30
2019-01-30T03:42:51.453Z,-1.40
2019-01-30T03:45:41.395Z,-1.40
2019-01-30T03:48:16.986Z,-1.40
2019-01-30T03:51:02.228Z,-1.40
2019-01-30T03:53:38.035Z,-1.40
2019-01-30T03:56:25.987Z,-1.40
2019-01-30T03:59:13.249Z,-1.40
2019-01-30T04:01:52.391Z,-1.40
2019-01-30T04:04:26.408Z,-1.30
2019-01-30T04:06:57.624Z,-1.20
2019-01-30T04:09:36.160Z,-1.20
2019-01-30T04:12:10.461Z,-1.20
2019-01-30T04:14:47.015Z,-1.20
2019-01-30T04:17:21.200Z,-1.20
2019-01-30T04:19:59.050Z,-1.30
2019-01-30T04:22:33.684Z,-1.30
2019-01-30T04:25:16.167Z,-1.40
2019-01-30T04:27:52.131Z,-1.40
2019-01-30T04:30:30.025Z,-1.30
2019-01-30T04:33:07.296Z,-1.30
2019-01-30T04:35:38.179Z,-1.30
2019-01-30T04:38:11.182Z,-1.30
2019-01-30T04:40:42.590Z,-1.20
2019-01-30T04:43:19.529Z,-1.20
2019-01-30T04:46:08.621Z,-1.10
2019-01-30T04:48:42.667Z,-1.10
2019-01-30T04:51:16.114Z,-1.10
2019-01-30T04:53:49.170Z,-1.00
2019-01-30T04:56:33.051Z,-1.00
2019-01-30T04:59:11.819Z,-1.10
2019-01-30T05:01:50.027Z,-1.10
2019-01-30T05:04:37.171Z,-1.10
2019-01-30T05:07:13.463Z,-1.10
2019-01-30T05:10:01.277Z,-1.00
2019-01-30T05:12:51.638Z,-1.00
2019-01-30T05:15:35.649Z,-1.00
2019-01-30T05:18:16.813Z,-1.10
2019-01-30T05:21:00.820Z,-1.00
2019-01-30T05:23:39.910Z,-0.90
2019-01-30T05:26:15.011Z,-0.90
2019-01-30T05:28:49.782Z,-1.00
2019-01-30T05:31:26.007Z,-0.90
2019-01-30T05:34:07.264Z,-0.90
2019-01-30T05:36:41.692Z,-0.90
2019-01-30T05:39:13.091Z,-0.80
2019-01-30T05:41:49.693Z,-0.80
2019-01-30T05:44:34.464Z,-0.80
2019-01-30T05:47:18.786Z,-0.80
2019-01-30T05:50:00.856Z,-0.70
2019-01-30T05:52:50.541Z,-0.70
2019-01-30T05:55:37.208Z,-0.70
2019-01-30T05:58:13.469Z,-0.70
2019-01-30T06:00:55.724Z,-0.70
2019-01-30T06:03:36.586Z,-0.70
2019-01-30T06:06:16.279Z,-0.70
2019-01-30T06:08:53.618Z,-0.70
2019-01-30T06:11:34.232Z,-0.70
2019-01-30T06:14:09.798Z,-0.60
2019-01-30T06:16:45.865Z,-0.70
2019-01-30T06:19:22.497Z,-0.70
2019-01-30T06:22:11.339Z,-0.70
2019-01-30T06:25:09.515Z,-0.60
2019-01-30T06:27:40.969Z,-0.60
2019-01-30T06:30:29.373Z,-0.60
2019-01-30T06:33:25.913Z,-0.60
2019-01-30T06:36:01.332Z,-0.60
2019-01-30T06:38:41.956Z,-0.60
2019-01-30T06:41:41.217Z,-0.60
2019-01-30T06:44:20.889Z,-0.50
2019-01-30T06:47:07.663Z,-0.40
2019-01-30T06:49:45.677Z,-0.50
2019-01-30T06:52:21.870Z,-0.40
2019-01-30T06:54:59.739Z,-0.40
2019-01-30T06:57:30.647Z,-0.40
2019-01-30T07:00:02.176Z,-0.40
2019-01-30T07:02:34.309Z,-0.40
2019-01-30T07:05:10.553Z,-0.40
2019-01-30T07:07:44.179Z,-0.40
2019-01-30T07:10:21.408Z,-0.40
2019-01-30T07:12:52.659Z,-0.40
2019-01-30T07:15:24.510Z,-0.40
2019-01-30T07:17:56.787Z,-0.40
2019-01-30T07:20:28.084Z,-0.40
2019-01-30T07:22:59.183Z,-0.40
2019-01-30T07:25:29.911Z,-0.40
2019-01-30T07:28:00.571Z,-0.40
2019-01-30T07:30:38.452Z,-0.40
2019-01-30T07:33:09.512Z,-0.20
2019-01-30T07:35:40.315Z,-0.20
2019-01-30T07:38:11.052Z,-0.20
2019-01-30T07:40:41.856Z,-0.20
2019-01-30T07:43:12.576Z,-0.10
2019-01-30T07:45:43.329Z,-0.10
2019-01-30T07:48:14.145Z,0.00
2019-01-30T07:50:44.880Z,0.40
2019-01-30T07:53:15.717Z,0.10
2019-01-30T07:55:46.667Z,0.10
2019-01-30T07:58:17.287Z,0.20
2019-01-30T08:00:51.068Z,0.10
2019-01-30T08:03:21.779Z,0.10
2019-01-30T08:05:52.949Z,0.20
2019-01-30T08:08:23.655Z,0.20
2019-01-30T08:10:54.415Z,0.30
2019-01-30T08:13:28.752Z,0.30
2019-01-30T08:15:59.651Z,0.50
2019-01-30T08:18:33.403Z,0.60
2019-01-30T08:21:04.426Z,0.80
2019-01-30T08:23:35.472Z,1.00
2019-01-30T08:26:07.973Z,1.10
2019-01-30T08:28:39.251Z,1.30
2019-01-30T08:31:10.459Z,1.70
2019-01-30T08:33:47.327Z,2.10
2019-01-30T08:36:18.664Z,2.60
2019-01-30T08:38:51.826Z,3.30
2019-01-30T08:41:21.564Z,3.60
2019-01-30T08:43:52.135Z,3.70
2019-01-30T08:46:22.893Z,3.90
2019-01-30T08:48:55.483Z,4.10
2019-01-30T08:51:26.559Z,3.80
2019-01-30T08:53:57.474Z,3.60
2019-01-30T08:56:28.467Z,3.70
2019-01-30T08:58:59.229Z,3.80
2019-01-30T09:01:38.653Z,4.00
2019-01-30T09:04:11.359Z,4.40
2019-01-30T09:06:44.447Z,4.50
2019-01-30T09:09:23.363Z,4.30
2019-01-30T09:11:57.627Z,4.30
2019-01-30T09:14:27.704Z,4.40
2019-01-30T09:16:58.425Z,4.20
2019-01-30T09:19:29.239Z,4.50
2019-01-30T09:22:00.275Z,4.60
2019-01-30T09:24:38.393Z,5.00
2019-01-30T09:27:09.123Z,5.10
2019-01-30T09:29:38.996Z,5.10
2019-01-30T09:32:09.540Z,4.90
2019-01-30T09:34:40.351Z,4.40
2019-01-30T09:37:11.142Z,4.20
2019-01-30T09:39:42.474Z,4.10
2019-01-30T09:42:13.181Z,4.00
2019-01-30T09:44:44.049Z,4.10
2019-01-30T09:47:14.977Z,4.40
2019-01-30T09:49:45.699Z,4.60
2019-01-30T09:52:26.401Z,5.10
2019-01-30T09:54:48.923Z,5.80
2019-01-30T09:57:29.956Z,6.40
2019-01-30T10:00:02.813Z,8.30
2019-01-30T10:02:34.656Z,10.00
2019-01-30T10:05:06.049Z,9.80
2019-01-30T10:07:36.877Z,9.30
2019-01-30T10:10:11.337Z,8.80
2019-01-30T10:12:42.123Z,8.30
2019-01-30T10:15:16.053Z,7.70
2019-01-30T10:17:47.196Z,7.60
2019-01-30T10:20:20.374Z,7.50
2019-01-30T10:22:58.427Z,7.60
2019-01-30T10:25:29.444Z,8.20
2019-01-30T10:28:00.205Z,8.20
2019-01-30T10:30:33.498Z,7.60
2019-01-30T10:33:04.576Z,7.10
2019-01-30T10:35:38.139Z,6.90
2019-01-30T10:38:09.116Z,6.00
2019-01-30T10:40:39.858Z,5.20
2019-01-30T10:43:10.661Z,5.20
2019-01-30T10:45:41.376Z,5.50
2019-01-30T10:48:12.772Z,5.40
2019-01-30T10:50:45.194Z,5.50
2019-01-30T10:53:20.112Z,5.10
2019-01-30T10:55:50.795Z,5.20
2019-01-30T10:58:21.726Z,5.30
2019-01-30T11:00:54.867Z,5.30
2019-01-30T11:03:31.872Z,4.60
2019-01-30T11:06:01.509Z,4.30
2019-01-30T11:08:31.136Z,4.30
2019-01-30T11:11:07.615Z,4.30
2019-01-30T11:13:31.934Z,4.00
2019-01-30T11:16:02.392Z,3.50
2019-01-30T11:18:33.380Z,3.30
2019-01-30T11:21:06.077Z,3.10
2019-01-30T11:23:36.777Z,3.20
2019-01-30T11:26:07.524Z,3.20
2019-01-30T11:28:38.380Z,3.30
2019-01-30T11:31:11.308Z,3.40
2019-01-30T11:33:42.277Z,3.40
2019-01-30T11:36:13.156Z,3.20
2019-01-30T11:38:43.978Z,3.10
2019-01-30T11:41:14.977Z,3.20
2019-01-30T11:43:46.320Z,3.20
2019-01-30T11:46:16.990Z,3.40
2019-01-30T11:48:56.506Z,3.20
2019-01-30T11:51:25.077Z,3.00
2019-01-30T11:53:55.872Z,3.00
2019-01-30T11:56:26.686Z,3.00
2019-01-30T11:58:57.295Z,2.80
2019-01-30T12:01:32.367Z,2.60
2019-01-30T12:04:03.075Z,2.50
2019-01-30T12:06:33.647Z,2.60
2019-01-30T12:09:06.943Z,2.50
2019-01-30T12:11:37.554Z,2.70
2019-01-30T12:14:08.314Z,2.80
2019-01-30T12:16:39.089Z,2.60
2019-01-30T12:19:09.850Z,2.60
2019-01-30T12:21:40.784Z,2.60
2019-01-30T12:24:11.690Z,2.60
2019-01-30T12:26:42.649Z,2.60
2019-01-30T12:29:15.386Z,2.60
2019-01-30T12:31:46.036Z,2.50
2019-01-30T12:34:28.126Z,2.40
2019-01-30T12:36:54.038Z,2.40
2019-01-30T12:39:29.980Z,2.40
2019-01-30T12:42:02.973Z,2.40
2019-01-30T12:44:37.900Z,2.20
2019-01-30T12:47:07.824Z,2.20
2019-01-30T12:49:42.940Z,2.20
2019-01-30T12:52:19.028Z,2.30
2019-01-30T12:54:53.527Z,2.40
2019-01-30T12:57:25.754Z,2.40
2019-01-30T12:59:58.051Z,2.40
2019-01-30T13:02:30.474Z,2.30
2019-01-30T13:05:02.435Z,2.20
2019-01-30T13:07:33.439Z,2.00
2019-01-30T13:10:05.067Z,1.90
2019-01-30T13:12:42.812Z,1.80
2019-01-30T13:15:14.721Z,1.80
2019-01-30T13:17:49.204Z,1.80
2019-01-30T13:20:19.697Z,1.80
2019-01-30T13:22:50.549Z,1.70
2019-01-30T13:25:26.506Z,1.60
2019-01-30T13:27:59.320Z,1.60
2019-01-30T13:30:33.087Z,1.60
2019-01-30T13:33:02.858Z,1.70
2019-01-30T13:35:33.842Z,1.70
2019-01-30T13:38:03.489Z,1.60
2019-01-30T13:40:35.334Z,1.60
2019-01-30T13:43:07.125Z,1.60
2019-01-30T13:45:37.236Z,1.60
2019-01-30T13:48:09.240Z,1.60
2019-01-30T13:50:46.886Z,1.60
2019-01-30T13:53:16.791Z,1.50
2019-01-30T13:55:46.534Z,1.50
2019-01-30T13:58:16.333Z,1.50
2019-01-30T14:00:46.684Z,1.60
2019-01-30T14:03:18.685Z,1.70
2019-01-30T14:06:16.443Z,1.70
2019-01-30T14:08:46.469Z,1.80
2019-01-30T14:11:16.073Z,1.80
2019-01-30T14:13:45.871Z,1.70
2019-01-30T14:16:17.325Z,1.70
2019-01-30T14:18:52.274Z,1.60
2019-01-30T14:21:27.409Z,1.70
2019-01-30T14:23:59.260Z,1.70
2019-01-30T14:26:31.231Z,1.70
2019-01-30T14:29:01.337Z,1.70
2019-01-30T14:31:31.303Z,1.70
2019-01-30T14:34:03.336Z,1.70
2019-01-30T14:36:36.157Z,1.70
2019-01-30T14:39:09.159Z,1.80
2019-01-30T14:41:39.146Z,1.80
2019-01-30T14:44:09.218Z,1.70
2019-01-30T14:46:42.386Z,1.80
2019-01-30T14:49:13.462Z,1.80
2019-01-30T14:51:43.276Z,1.80
2019-01-30T14:54:12.986Z,1.70
2019-01-30T14:56:43.648Z,1.70
2019-01-30T14:59:14.613Z,1.70
2019-01-30T15:01:46.455Z,1.80
2019-01-30T15:04:16.558Z,1.70
2019-01-30T15:07:07.958Z,1.80
2019-01-30T15:09:41.810Z,1.70
2019-01-30T15:12:12.559Z,1.70
2019-01-30T15:14:48.174Z,1.60
2019-01-30T15:17:17.831Z,1.60
2019-01-30T15:19:53.867Z,1.70
2019-01-30T15:22:21.664Z,1.70
2019-01-30T15:24:55.523Z,1.60
2019-01-30T15:27:29.644Z,1.60
2019-01-30T15:29:59.542Z,1.60
2019-01-30T15:32:31.726Z,1.50
2019-01-30T15:35:02.463Z,1.50
2019-01-30T15:37:32.222Z,1.50
2019-01-30T15:40:02.155Z,1.60
2019-01-30T15:42:33.086Z,1.60
2019-01-30T15:45:10.877Z,1.50
2019-01-30T15:47:46.574Z,1.50
2019-01-30T15:50:29.994Z,1.50
2019-01-30T15:53:18.279Z,1.50
2019-01-30T15:55:51.490Z,1.50
2019-01-30T15:58:56.448Z,1.50
2019-01-30T16:01:43.049Z,1.50
2019-01-30T16:04:27.647Z,1.50
2019-01-30T16:07:11.509Z,1.50
2019-01-30T16:09:43.698Z,1.50
2019-01-30T16:12:28.648Z,1.50
2019-01-30T16:15:03.561Z,1.40
2019-01-30T16:17:45.301Z,1.40
2019-01-30T16:20:27.675Z,1.40
2019-01-30T16:23:08.836Z,1.50
2019-01-30T16:25:48.810Z,1.50
2019-01-30T16:28:24.498Z,1.50
2019-01-30T16:31:14.716Z,1.50
2019-01-30T16:36:49.010Z,1.40
2019-01-30T16:39:18.912Z,1.50
2019-01-30T16:41:53.020Z,1.50
2019-01-30T16:44:24.178Z,1.40
2019-01-30T16:46:56.083Z,1.50
2019-01-30T16:49:30.848Z,1.50
2019-01-30T16:52:01.123Z,1.60
2019-01-30T16:54:32.545Z,1.60
2019-01-30T16:57:18.262Z,1.50
2019-01-30T17:00:23.943Z,1.60
2019-01-30T17:02:58.203Z,1.60
2019-01-30T17:06:07.520Z,1.60
2019-01-30T17:09:05.802Z,1.70
2019-01-30T17:11:45.472Z,1.70
2019-01-30T17:14:20.689Z,1.70
2019-01-30T17:17:07.163Z,1.70
2019-01-30T17:19:43.767Z,1.70
2019-01-30T17:22:20.774Z,1.70
2019-01-30T17:25:04.116Z,1.70
2019-01-30T17:27:33.822Z,1.70
2019-01-30T17:30:10.678Z,1.70
2019-01-30T17:35:33.668Z,1.70
2019-01-30T17:38:17.434Z,1.80
2019-01-30T17:40:55.480Z,1.70
2019-01-30T17:43:26.494Z,1.80
2019-01-30T17:46:00.688Z,1.70
2019-01-30T17:48:35.319Z,1.70
2019-01-30T17:51:08.480Z,1.70
2019-01-30T17:53:41.283Z,1.70
2019-01-30T17:56:12.143Z,1.70
2019-01-30T17:58:42.109Z,1.70
2019-01-30T18:01:16.884Z,1.70
2019-01-30T18:03:47.924Z,1.70
2019-01-30T18:06:29.244Z,1.70
2019-01-30T18:08:50.326Z,1.70
2019-01-30T18:11:21.664Z,1.70
2019-01-30T18:13:54.639Z,1.80
2019-01-30T18:16:27.226Z,1.80
2019-01-30T18:19:01.257Z,1.90
2019-01-30T18:21:34.546Z,1.90
2019-01-30T18:24:04.103Z,1.80
2019-01-30T18:26:38.036Z,1.80
2019-01-30T18:29:16.052Z,1.70
2019-01-30T18:31:46.122Z,1.70
2019-01-30T18:34:15.979Z,1.70
2019-01-30T18:36:45.817Z,1.70
2019-01-30T18:39:17.305Z,1.80
2019-01-30T18:41:47.235Z,1.60
2019-01-30T18:44:17.496Z,1.60
2019-01-30T18:46:47.395Z,1.50
2019-01-30T18:49:31.053Z,1.40
2019-01-30T18:52:04.850Z,1.40
2019-01-30T18:54:36.101Z,1.40
2019-01-30T18:57:07.502Z,1.40
2019-01-30T18:59:37.856Z,1.40
2019-01-30T19:02:11.411Z,1.40
2019-01-30T19:04:46.343Z,1.40
2019-01-30T19:07:20.703Z,1.50
2019-01-30T19:09:54.235Z,1.60
2019-01-30T19:12:26.967Z,1.70
2019-01-30T19:15:01.636Z,1.70
2019-01-30T19:17:32.208Z,1.70
2019-01-30T19:20:09.121Z,1.70
2019-01-30T19:22:45.502Z,1.80
2019-01-30T19:25:17.139Z,1.80
2019-01-30T19:27:49.072Z,1.90
2019-01-30T19:30:28.514Z,1.90
2019-01-30T19:33:05.581Z,2.00
2019-01-30T19:35:39.795Z,2.00
2019-01-30T19:38:11.844Z,2.10
2019-01-30T19:40:45.675Z,2.00
2019-01-30T19:43:18.772Z,2.10
2019-01-30T19:45:50.825Z,2.10
2019-01-30T19:48:22.322Z,2.10
2019-01-30T19:50:53.819Z,2.10
2019-01-30T19:53:26.553Z,2.10
2019-01-30T19:55:57.689Z,2.10
2019-01-30T19:58:30.565Z,2.10
2019-01-30T20:01:04.866Z,2.20
2019-01-30T20:03:36.817Z,2.20
2019-01-30T20:06:11.712Z,2.20
2019-01-30T20:08:42.927Z,2.30
2019-01-30T20:11:14.330Z,2.20
2019-01-30T20:13:45.531Z,2.30
2019-01-30T20:16:16.976Z,2.30
2019-01-30T20:18:49.610Z,2.40
2019-01-30T20:21:25.069Z,2.40
2019-01-30T20:23:56.544Z,2.40
2019-01-30T20:26:27.969Z,2.40
2019-01-30T20:29:00.499Z,2.40
2019-01-30T20:31:34.122Z,2.40
2019-01-30T20:34:57.232Z,2.50
2019-01-30T20:41:06.245Z,2.40
2019-01-30T20:43:50.495Z,2.30
2019-01-30T20:46:38.314Z,2.30
2019-01-30T20:49:53.369Z,2.30
2019-01-30T20:52:17.353Z,2.30
2019-01-30T20:55:13.320Z,2.30
2019-01-30T20:57:51.294Z,2.40
2019-01-30T21:00:28.522Z,2.40
2019-01-30T21:03:32.059Z,2.40
2019-01-30T21:06:08.758Z,2.40
2019-01-30T21:08:48.036Z,2.50
2019-01-30T21:11:27.697Z,2.50
2019-01-30T21:14:20.436Z,2.50
2019-01-30T21:16:47.554Z,2.50
2019-01-30T21:19:24.340Z,2.50
2019-01-30T21:22:07.565Z,2.50
2019-01-30T21:24:42.082Z,2.50
2019-01-30T21:27:13.521Z,2.60
2019-01-30T21:29:47.495Z,2.60
2019-01-30T21:32:24.514Z,2.50
2019-01-30T21:34:58.179Z,2.60
2019-01-30T21:37:33.751Z,2.60
2019-01-30T21:40:10.066Z,2.50
2019-01-30T21:42:45.912Z,2.50
2019-01-30T21:45:23.214Z,2.50
2019-01-30T21:48:07.250Z,2.50
2019-01-30T21:50:43.038Z,2.50
2019-01-30T21:53:21.872Z,2.40
2019-01-30T21:55:53.107Z,2.40
2019-01-30T21:58:27.787Z,2.40
2019-01-30T22:01:05.598Z,2.40
2019-01-30T22:03:39.160Z,2.40
2019-01-30T22:06:13.821Z,2.40
2019-01-30T22:08:47.004Z,2.40
2019-01-30T22:11:18.369Z,2.40
2019-01-30T22:13:53.346Z,2.40
2019-01-30T22:16:24.671Z,2.40
2019-01-30T22:18:55.967Z,2.40
2019-01-30T22:21:26.817Z,2.40
2019-01-30T22:24:05.666Z,2.40
2019-01-30T22:26:33.059Z,2.40
2019-01-30T22:29:04.315Z,2.40
2019-01-30T22:31:35.231Z,2.50
2019-01-30T22:34:08.477Z,2.50
2019-01-30T22:36:39.544Z,2.50
2019-01-30T22:39:12.167Z,2.50
2019-01-30T22:41:45.585Z,2.50
2019-01-30T22:44:26.458Z,2.50
2019-01-30T22:46:57.828Z,2.50
2019-01-30T22:49:43.865Z,2.50
2019-01-30T22:52:21.708Z,2.40
2019-01-30T22:55:04.073Z,2.40
2019-01-30T22:57:44.451Z,2.40
2019-01-30T23:00:52.280Z,2.40
2019-01-30T23:04:10.750Z,2.40
2019-01-30T23:07:00.972Z,2.30
2019-01-30T23:10:12.722Z,2.30
2019-01-30T23:13:12.938Z,2.30
2019-01-30T23:16:32.779Z,2.30
2019-01-30T23:19:29.239Z,2.30
2019-01-30T23:22:48.986Z,2.30
2019-01-30T23:26:10.427Z,2.30
2019-01-30T23:29:25.861Z,2.40
2019-01-30T23:32:29.589Z,2.40
2019-01-30T23:35:37.187Z,2.40
2019-01-30T23:38:44.293Z,2.40
2019-01-30T23:42:00.264Z,2.40
2019-01-30T23:44:53.139Z,2.40
2019-01-30T23:48:28.856Z,2.30
2019-01-30T23:51:40.790Z,2.20
2019-01-30T23:54:43.851Z,2.20
2019-01-30T23:58:07.919Z,2.20
